createdAt,value
2022-12-11T00:01:14.588Z,101101.16
2022-12-11T00:03:42.935Z,101094.19
2022-12-11T00:06:13.784Z,101096.75
2022-12-11T00:08:41.788Z,101095.13
2022-12-11T00:11:13.968Z,101087.97
2022-12-11T00:13:41.728Z,101096.00
2022-12-11T00:16:10.383Z,101098.69
2022-12-11T00:18:38.725Z,101098.75
2022-12-11T00:21:09.667Z,101104.13
2022-12-11T00:23:38.547Z,101096.94
2022-12-11T00:26:07.124Z,101098.69
2022-12-11T00:28:37.369Z,101087.97
2022-12-11T00:31:06.481Z,101093.41
2022-12-11T00:33:36.607Z,101091.59
2022-12-11T00:36:05.351Z,101089.88
2022-12-11T00:38:33.427Z,101093.50
2022-12-11T00:41:01.413Z,101094.38
2022-12-11T00:43:29.437Z,101101.53
2022-12-11T00:45:58.905Z,101099.84
2022-12-11T00:48:26.945Z,101094.47
2022-12-11T00:50:54.904Z,101095.41
2022-12-11T00:53:23.015Z,101098.09
2022-12-11T00:55:50.976Z,101090.16
2022-12-11T00:58:19.698Z,101092.84
2022-12-11T01:00:48.383Z,101086.63
2022-12-11T01:03:18.572Z,101080.41
2022-12-11T01:05:53.896Z,101074.19
2022-12-11T01:08:22.144Z,101079.72
2022-12-11T01:10:50.246Z,101068.91
2022-12-11T01:13:18.504Z,101076.06
2022-12-11T01:15:49.011Z,101071.56
2022-12-11T01:18:18.332Z,101074.19
2022-12-11T01:20:46.361Z,101071.56
2022-12-11T01:23:14.889Z,101079.72
2022-12-11T01:25:43.775Z,101080.66
2022-12-11T01:28:12.084Z,101080.75
2022-12-11T01:30:42.812Z,101085.25
2022-12-11T01:33:10.942Z,101078.19
2022-12-11T01:35:41.533Z,101075.56
2022-12-11T01:38:10.758Z,101071.06
2022-12-11T01:40:38.652Z,101065.81
2022-12-11T01:43:06.626Z,101069.34
2022-12-11T01:45:40.471Z,101073.00
2022-12-11T01:48:12.540Z,101064.16
2022-12-11T01:50:45.633Z,101066.81
2022-12-11T01:53:21.052Z,101072.19
2022-12-11T01:55:52.450Z,101070.47
2022-12-11T01:58:27.472Z,101072.28
2022-12-11T02:00:57.691Z,101067.91
2022-12-11T02:03:26.027Z,101065.22
2022-12-11T02:05:55.373Z,101062.72
2022-12-11T02:08:23.356Z,101069.91
2022-12-11T02:11:02.605Z,101071.72
2022-12-11T02:13:35.993Z,101084.25
2022-12-11T02:16:12.090Z,101081.56
2022-12-11T02:18:49.753Z,101078.09
2022-12-11T02:21:25.439Z,101081.75
2022-12-11T02:24:15.798Z,101075.44
2022-12-11T02:27:09.809Z,101071.97
2022-12-11T02:29:43.487Z,101070.25
2022-12-11T02:32:18.137Z,101069.41
2022-12-11T02:34:50.358Z,101056.00
2022-12-11T02:37:20.750Z,101055.25
2022-12-11T02:39:51.486Z,101055.31
2022-12-11T02:42:21.407Z,101065.06
2022-12-11T02:44:56.718Z,101052.63
2022-12-11T02:47:28.491Z,101056.28
2022-12-11T02:49:59.336Z,101048.25
2022-12-11T02:52:29.593Z,101052.75
2022-12-11T02:55:01.513Z,101054.56
2022-12-11T02:57:34.747Z,101047.47
2022-12-11T03:00:07.097Z,101047.47
2022-12-11T03:02:35.119Z,101044.91
2022-12-11T03:05:03.123Z,101039.53
2022-12-11T03:07:36.032Z,101054.75
2022-12-11T03:10:06.272Z,101048.53
2022-12-11T03:12:37.662Z,101042.31
2022-12-11T03:15:10.064Z,101046.78
2022-12-11T03:17:49.038Z,101030.81
2022-12-11T03:20:27.358Z,101032.63
2022-12-11T03:23:08.384Z,101033.50
2022-12-11T03:25:45.654Z,101047.84
2022-12-11T03:28:20.473Z,101047.00
2022-12-11T03:30:53.791Z,101047.91
2022-12-11T03:33:27.492Z,101046.13
2022-12-11T03:35:58.507Z,101046.22
2022-12-11T03:38:33.150Z,101040.00
2022-12-11T03:41:05.282Z,101040.94
2022-12-11T03:43:35.455Z,101041.81
2022-12-11T03:46:06.980Z,101040.94
2022-12-11T03:48:38.203Z,101039.25
2022-12-11T03:51:07.585Z,101036.63
2022-12-11T03:53:37.587Z,101036.63
2022-12-11T03:56:08.143Z,101041.13
2022-12-11T03:58:36.221Z,101029.63
2022-12-11T04:01:09.700Z,101022.56
2022-12-11T04:03:38.106Z,101030.59
2022-12-11T04:06:06.306Z,101023.44
2022-12-11T04:08:34.222Z,101025.25
2022-12-11T04:11:22.643Z,101019.88
2022-12-11T04:14:11.325Z,101018.19
2022-12-11T04:16:39.852Z,101017.31
2022-12-11T04:19:25.200Z,101019.13
2022-12-11T04:22:10.468Z,101017.31
2022-12-11T04:24:40.761Z,101020.06
2022-12-11T04:27:08.913Z,101021.03
2022-12-11T04:29:37.108Z,101023.69
2022-12-11T04:32:06.691Z,101020.16
2022-12-11T04:34:34.612Z,101019.31
2022-12-11T04:37:02.564Z,101016.75
2022-12-11T04:39:33.654Z,101018.44
2022-12-11T04:42:01.610Z,101017.66
2022-12-11T04:44:29.663Z,101011.47
2022-12-11T04:46:59.248Z,101000.75
2022-12-11T04:49:28.606Z,101004.38
2022-12-11T04:51:58.968Z,101002.56
2022-12-11T04:54:26.904Z,101008.03
2022-12-11T04:56:54.900Z,101008.03
2022-12-11T04:59:22.905Z,101006.28
2022-12-11T05:01:50.969Z,101005.41
2022-12-11T05:04:21.167Z,101005.41
2022-12-11T05:06:52.936Z,101006.28
2022-12-11T05:09:21.471Z,101009.91
2022-12-11T05:11:49.375Z,101004.56
2022-12-11T05:14:17.555Z,101009.91
2022-12-11T05:16:46.207Z,101010.88
2022-12-11T05:19:14.495Z,101010.88
2022-12-11T05:21:42.473Z,101019.88
2022-12-11T05:24:11.793Z,101015.44
2022-12-11T05:26:39.776Z,101018.13
2022-12-11T05:29:07.751Z,101015.53
2022-12-11T05:31:36.036Z,101018.97
2022-12-11T05:34:04.115Z,101019.09
2022-12-11T05:36:34.156Z,101008.47
2022-12-11T05:39:03.177Z,101004.06
2022-12-11T05:41:33.616Z,101012.00
2022-12-11T05:44:01.882Z,101001.38
2022-12-11T05:46:31.609Z,101003.19
2022-12-11T05:49:01.561Z,101004.16
2022-12-11T05:51:30.320Z,100997.84
2022-12-11T05:53:59.411Z,101008.56
2022-12-11T05:56:29.290Z,100995.28
2022-12-11T05:58:59.000Z,101003.31
2022-12-11T06:01:29.161Z,100998.03
2022-12-11T06:03:58.320Z,100992.66
2022-12-11T06:06:27.016Z,100990.00
2022-12-11T06:08:58.958Z,100988.28
2022-12-11T06:11:28.521Z,100978.53
2022-12-11T06:14:00.581Z,100978.53
2022-12-11T06:16:28.488Z,100977.69
2022-12-11T06:18:58.391Z,100977.69
2022-12-11T06:21:29.483Z,100967.84
2022-12-11T06:24:00.677Z,100976.81
2022-12-11T06:26:29.733Z,100971.47
2022-12-11T06:28:59.135Z,100969.72
2022-12-11T06:31:27.364Z,100985.78
2022-12-11T06:33:55.406Z,100979.56
2022-12-11T06:36:25.098Z,100984.06
2022-12-11T06:38:54.158Z,100984.16
2022-12-11T06:41:22.238Z,100987.69
2022-12-11T06:43:50.771Z,100987.69
2022-12-11T06:46:21.218Z,100986.91
2022-12-11T06:48:49.859Z,100997.63
2022-12-11T06:51:20.597Z,100998.56
2022-12-11T06:53:52.971Z,101002.09
2022-12-11T06:56:21.609Z,101001.25
2022-12-11T06:58:49.678Z,101011.94
2022-12-11T07:01:19.731Z,101006.69
2022-12-11T07:03:49.511Z,101007.56
2022-12-11T07:06:17.769Z,101010.25
2022-12-11T07:08:45.713Z,101017.31
2022-12-11T07:11:15.770Z,101010.25
2022-12-11T07:13:44.340Z,101006.69
2022-12-11T07:16:14.456Z,101016.53
2022-12-11T07:18:44.558Z,101012.97
2022-12-11T07:21:15.195Z,101015.66
2022-12-11T07:23:43.660Z,101010.31
2022-12-11T07:26:13.628Z,101021.00
2022-12-11T07:28:42.473Z,101019.28
2022-12-11T07:31:13.030Z,101013.09
2022-12-11T07:33:41.710Z,101019.28
2022-12-11T07:36:11.881Z,101014.91
2022-12-11T07:38:41.894Z,101019.41
2022-12-11T07:41:14.625Z,101025.59
2022-12-11T07:43:43.540Z,101017.69
2022-12-11T07:46:14.437Z,101015.88
2022-12-11T07:48:44.206Z,101016.72
2022-12-11T07:51:15.030Z,101015.00
2022-12-11T07:53:45.262Z,101013.25
2022-12-11T07:56:13.801Z,101023.09
2022-12-11T07:58:41.736Z,101021.22
2022-12-11T08:01:13.405Z,101029.13
2022-12-11T08:03:44.282Z,101026.56
2022-12-11T08:06:12.750Z,101031.81
2022-12-11T08:08:42.091Z,101028.38
2022-12-11T08:11:14.064Z,101035.44
2022-12-11T08:13:42.816Z,101038.97
2022-12-11T08:16:13.654Z,101039.84
2022-12-11T08:18:43.064Z,101023.78
2022-12-11T08:21:13.695Z,101029.03
2022-12-11T08:23:41.895Z,101028.19
2022-12-11T08:26:14.038Z,101031.72
2022-12-11T08:28:42.075Z,101033.53
2022-12-11T08:31:12.088Z,101032.59
2022-12-11T08:33:41.765Z,101027.25
2022-12-11T08:36:11.212Z,101030.78
2022-12-11T08:38:39.568Z,101028.09
2022-12-11T08:41:12.606Z,101029.72
2022-12-11T08:43:43.973Z,101020.09
2022-12-11T08:46:12.877Z,101028.09
2022-12-11T08:48:43.392Z,101023.63
2022-12-11T08:51:14.813Z,101020.94
2022-12-11T08:53:43.441Z,101020.94
2022-12-11T08:56:15.126Z,101016.53
2022-12-11T08:58:43.376Z,101013.66
2022-12-11T09:01:13.508Z,101025.22
2022-12-11T09:03:41.942Z,101015.41
2022-12-11T09:06:14.159Z,101018.09
2022-12-11T09:08:45.939Z,101022.56
2022-12-11T09:11:20.993Z,101018.09
2022-12-11T09:13:49.306Z,101015.41
2022-12-11T09:16:19.366Z,101019.81
2022-12-11T09:18:49.202Z,101011.78
2022-12-11T09:21:18.471Z,101013.50
2022-12-11T09:23:46.847Z,101015.22
2022-12-11T09:26:20.185Z,101012.53
2022-12-11T09:28:48.245Z,101007.19
2022-12-11T09:31:18.783Z,101009.00
2022-12-11T09:33:47.575Z,101007.19
2022-12-11T09:36:15.587Z,101010.53
2022-12-11T09:38:47.320Z,101008.72
2022-12-11T09:41:36.125Z,101014.88
2022-12-11T09:44:19.027Z,101012.97
2022-12-11T09:46:48.171Z,101015.44
2022-12-11T09:49:27.400Z,101012.69
2022-12-11T09:52:04.277Z,101010.03
2022-12-11T09:54:33.633Z,101011.84
2022-12-11T09:57:15.490Z,101014.50
2022-12-11T10:00:04.959Z,101001.03
2022-12-11T10:02:46.890Z,100994.81
2022-12-11T10:05:22.031Z,100994.72
2022-12-11T10:07:53.933Z,100997.38
2022-12-11T10:10:36.923Z,100992.13
2022-12-11T10:13:12.617Z,100989.38
2022-12-11T10:15:55.655Z,100994.66
2022-12-11T10:18:25.995Z,100998.19
2022-12-11T10:20:54.945Z,100993.69
2022-12-11T10:23:28.650Z,101001.72
2022-12-11T10:26:04.044Z,100994.53
2022-12-11T10:28:33.497Z,100994.72
2022-12-11T10:31:08.999Z,100986.69
2022-12-11T10:33:46.557Z,100991.97
2022-12-11T10:36:20.061Z,100993.69
2022-12-11T10:38:48.313Z,100985.66
2022-12-11T10:41:21.124Z,100987.47
2022-12-11T10:43:52.680Z,100981.25
2022-12-11T10:46:22.487Z,100983.84
2022-12-11T10:48:53.372Z,100979.34
2022-12-11T10:51:26.189Z,100980.47
2022-12-11T10:53:56.583Z,100981.34
2022-12-11T10:56:29.350Z,100972.53
2022-12-11T10:58:59.993Z,100976.09
2022-12-11T11:01:30.733Z,100973.41
2022-12-11T11:04:04.356Z,100975.13
2022-12-11T11:06:32.308Z,100979.50
2022-12-11T11:09:05.635Z,100980.38
2022-12-11T11:11:36.690Z,100973.22
2022-12-11T11:14:16.940Z,100974.16
2022-12-11T11:16:46.966Z,100970.56
2022-12-11T11:19:25.465Z,100967.88
2022-12-11T11:21:56.506Z,100973.13
2022-12-11T11:24:29.678Z,100968.63
2022-12-11T11:27:16.488Z,100970.28
2022-12-11T11:29:50.279Z,100961.47
2022-12-11T11:32:24.772Z,100967.59
2022-12-11T11:34:52.846Z,100958.78
2022-12-11T11:37:32.142Z,100967.78
2022-12-11T11:40:09.357Z,100957.16
2022-12-11T11:42:44.904Z,100958.97
2022-12-11T11:45:18.761Z,100964.31
2022-12-11T11:47:58.219Z,100956.38
2022-12-11T11:50:30.001Z,100952.00
2022-12-11T11:53:06.111Z,100948.47
2022-12-11T11:55:43.726Z,100945.78
2022-12-11T11:58:18.158Z,100943.19
2022-12-11T12:00:48.102Z,100940.59
2022-12-11T12:03:19.435Z,100937.16
2022-12-11T12:05:54.751Z,100939.06
2022-12-11T12:08:38.375Z,100940.09
2022-12-11T12:11:11.978Z,100946.31
2022-12-11T12:13:51.051Z,100941.06
2022-12-11T12:19:31.952Z,100933.22
2022-12-11T12:22:06.342Z,100927.13
2022-12-11T12:24:46.502Z,100927.88
2022-12-11T12:27:50.344Z,100928.81
2022-12-11T12:30:21.843Z,100928.16
2022-12-11T12:33:12.576Z,100934.28
2022-12-11T12:35:50.670Z,100931.09
2022-12-11T12:38:27.825Z,100935.63
2022-12-11T12:41:04.490Z,100933.59
2022-12-11T12:43:53.854Z,100930.53
2022-12-11T12:46:35.063Z,100935.38
2022-12-11T12:49:06.446Z,100930.59
2022-12-11T12:51:34.815Z,100931.28
2022-12-11T12:54:10.646Z,100927.47
2022-12-11T12:56:43.725Z,100930.00
2022-12-11T12:59:20.933Z,100931.63
2022-12-11T13:01:52.375Z,100936.81
2022-12-11T13:07:29.932Z,100930.25
2022-12-11T13:10:03.549Z,100927.47
2022-12-11T13:12:42.724Z,100924.69
2022-12-11T13:15:33.983Z,100930.03
2022-12-11T13:18:03.922Z,100929.88
2022-12-11T13:20:35.456Z,100926.22
2022-12-11T13:23:18.144Z,100927.97
2022-12-11T13:25:54.758Z,100926.03
2022-12-11T13:28:29.481Z,100934.00
2022-12-11T13:31:01.334Z,100927.69
2022-12-11T13:33:30.433Z,100932.06
2022-12-11T13:36:25.578Z,100925.75
2022-12-11T13:38:59.743Z,100933.63
2022-12-11T13:41:28.682Z,100937.06
2022-12-11T13:43:58.924Z,100932.56
2022-12-11T13:46:30.047Z,100935.16
2022-12-11T13:49:01.282Z,100938.69
2022-12-11T13:51:35.007Z,100943.97
2022-12-11T13:54:10.641Z,100934.97
2022-12-11T13:56:42.053Z,100948.25
2022-12-11T13:59:25.199Z,100949.13
2022-12-11T14:01:56.907Z,100938.44
2022-12-11T14:04:26.032Z,100944.47
2022-12-11T14:06:58.144Z,100945.41
2022-12-11T14:09:28.610Z,100947.03
2022-12-11T14:11:59.226Z,100948.75
2022-12-11T14:14:37.996Z,100950.47
2022-12-11T14:17:06.163Z,100945.09
2022-12-11T14:19:36.967Z,100946.84
2022-12-11T14:22:07.970Z,100945.09
2022-12-11T14:24:35.932Z,100946.66
2022-12-11T14:27:04.862Z,100941.41
2022-12-11T14:29:34.470Z,100944.94
2022-12-11T14:32:06.003Z,100942.19
2022-12-11T14:34:38.208Z,100944.75
2022-12-11T14:37:10.833Z,100941.22
2022-12-11T14:39:44.800Z,100942.94
2022-12-11T14:42:17.030Z,100939.28
2022-12-11T14:44:49.851Z,100946.38
2022-12-11T14:47:20.989Z,100940.06
2022-12-11T14:49:58.763Z,100940.81
2022-12-11T14:52:34.072Z,100940.81
2022-12-11T14:55:07.065Z,100945.31
2022-12-11T14:57:35.681Z,100949.75
2022-12-11T15:00:06.186Z,100953.34
2022-12-11T15:02:35.948Z,100947.91
2022-12-11T15:05:14.710Z,100944.38
2022-12-11T15:07:54.118Z,100958.63
2022-12-11T15:10:35.533Z,100954.88
2022-12-11T15:13:05.546Z,100954.88
2022-12-11T15:15:44.227Z,100954.03
2022-12-11T15:18:23.705Z,100953.94
2022-12-11T15:20:54.022Z,100961.88
2022-12-11T15:23:23.847Z,100960.06
2022-12-11T15:25:56.659Z,100962.75
2022-12-11T15:28:29.230Z,100965.41
2022-12-11T15:30:59.205Z,100960.06
2022-12-11T15:33:32.545Z,100965.41
2022-12-11T15:36:07.740Z,100964.44
2022-12-11T15:38:40.805Z,100962.66
2022-12-11T15:41:14.240Z,100972.41
2022-12-11T15:43:42.517Z,100970.28
2022-12-11T15:46:10.481Z,100977.38
2022-12-11T15:48:38.466Z,100977.03
2022-12-11T15:51:07.458Z,100977.31
2022-12-11T15:53:35.363Z,100982.00
2022-12-11T15:56:05.041Z,100980.53
2022-12-11T15:58:33.678Z,100980.06
2022-12-11T16:01:01.699Z,100983.31
2022-12-11T16:03:29.715Z,100978.59
2022-12-11T16:06:00.513Z,100977.34
2022-12-11T16:08:28.633Z,100978.97
2022-12-11T16:10:57.057Z,100976.09
2022-12-11T16:13:26.394Z,100981.28
2022-12-11T16:15:54.515Z,100974.88
2022-12-11T16:18:24.314Z,100977.44
2022-12-11T16:20:52.805Z,100972.88
2022-12-11T16:23:21.162Z,100970.09
2022-12-11T16:25:49.337Z,100969.13
2022-12-11T16:28:20.834Z,100965.41
2022-12-11T16:30:50.415Z,100968.03
2022-12-11T16:33:18.579Z,100960.84
2022-12-11T16:35:46.523Z,100966.09
2022-12-11T16:38:14.444Z,100966.94
2022-12-11T16:40:42.948Z,100957.09
2022-12-11T16:43:11.958Z,100960.56
2022-12-11T16:45:39.929Z,100953.38
2022-12-11T16:48:09.380Z,100955.19
2022-12-11T16:50:41.072Z,100956.91
2022-12-11T16:53:09.044Z,100965.72
2022-12-11T16:55:36.996Z,100955.88
2022-12-11T16:58:04.974Z,100957.59
2022-12-11T17:00:32.962Z,100966.47
2022-12-11T17:03:01.627Z,100965.50
2022-12-11T17:05:30.985Z,100963.72
2022-12-11T17:07:59.081Z,100964.59
2022-12-11T17:10:27.060Z,100966.28
2022-12-11T17:12:57.251Z,100966.41
2022-12-11T17:15:25.386Z,100966.28
2022-12-11T17:17:53.947Z,100965.44
2022-12-11T17:20:21.862Z,100970.69
2022-12-11T17:22:51.431Z,100969.84
2022-12-11T17:25:22.377Z,100972.41
2022-12-11T17:27:50.949Z,100974.16
2022-12-11T17:30:19.202Z,100969.66
2022-12-11T17:32:48.750Z,100974.16
2022-12-11T17:35:17.289Z,100967.03
2022-12-11T17:37:45.379Z,100968.78
2022-12-11T17:40:14.837Z,100970.41
2022-12-11T17:42:45.561Z,100974.03
2022-12-11T17:45:13.933Z,100978.53
2022-12-11T17:47:42.118Z,100970.41
2022-12-11T17:50:12.565Z,100973.06
2022-12-11T17:52:44.183Z,100973.97
2022-12-11T17:55:14.118Z,100973.03
2022-12-11T17:57:42.288Z,100972.16
2022-12-11T18:00:12.429Z,100974.75
2022-12-11T18:02:40.415Z,100976.56
2022-12-11T18:05:09.078Z,100974.63
2022-12-11T18:07:38.105Z,100967.56
2022-12-11T18:10:06.939Z,100971.22
2022-12-11T18:12:36.215Z,100974.63
2022-12-11T18:15:05.560Z,100973.78
2022-12-11T18:17:33.678Z,100975.53
2022-12-11T18:20:01.695Z,100977.25
2022-12-11T18:22:29.719Z,100976.38
2022-12-11T18:24:58.343Z,100972.75
2022-12-11T18:27:26.508Z,100982.50
2022-12-11T18:29:55.824Z,100979.81
2022-12-11T18:32:23.800Z,100978.00
2022-12-11T18:34:51.848Z,100982.50
2022-12-11T18:37:24.714Z,100982.41
2022-12-11T18:39:55.648Z,100979.75
2022-12-11T18:42:32.649Z,100979.63
2022-12-11T18:45:03.006Z,100979.63
2022-12-11T18:47:30.920Z,100986.69
2022-12-11T18:50:03.884Z,100972.38
2022-12-11T18:52:35.858Z,100984.81
2022-12-11T18:55:04.433Z,100979.44
2022-12-11T18:57:32.492Z,100975.81
2022-12-11T19:00:04.720Z,100978.47
2022-12-11T19:02:34.370Z,100978.38
2022-12-11T19:05:02.712Z,100973.00
2022-12-11T19:07:30.705Z,100968.53
2022-12-11T19:09:58.716Z,100966.72
2022-12-11T19:12:26.765Z,100975.63
2022-12-11T19:14:54.817Z,100969.28
2022-12-11T19:17:22.761Z,100977.31
2022-12-11T19:19:52.109Z,100972.81
2022-12-11T19:22:20.490Z,100979.91
2022-12-11T19:24:48.461Z,100972.06
2022-12-11T19:27:16.463Z,100980.78
2022-12-11T19:29:44.392Z,100983.47
2022-12-11T19:32:12.444Z,100978.09
2022-12-11T19:34:41.213Z,100978.97
2022-12-11T19:37:10.550Z,100982.50
2022-12-11T19:39:40.105Z,100976.19
2022-12-11T19:42:08.050Z,100983.25
2022-12-11T19:44:36.041Z,100978.38
2022-12-11T19:47:04.082Z,100981.75
2022-12-11T19:49:32.748Z,100980.25
2022-12-11T19:52:04.611Z,100983.50
2022-12-11T19:54:33.999Z,100989.38
2022-12-11T19:57:01.993Z,100980.19
2022-12-11T19:59:30.033Z,100994.16
2022-12-11T20:01:58.068Z,100990.25
2022-12-11T20:04:26.141Z,100992.84
2022-12-11T20:06:54.365Z,100979.34
2022-12-11T20:09:22.508Z,100980.97
2022-12-11T20:11:51.879Z,100987.94
2022-12-11T20:14:23.173Z,100987.88
2022-12-11T20:17:13.749Z,100990.34
2022-12-11T20:19:42.456Z,100991.09
2022-12-11T20:22:10.553Z,100995.50
2022-12-11T20:24:38.921Z,100992.81
2022-12-11T20:27:09.466Z,100989.22
2022-12-11T20:29:40.137Z,100995.41
2022-12-11T20:32:11.293Z,100998.00
2022-12-11T20:34:39.510Z,100998.00
2022-12-11T20:37:07.833Z,100999.69
2022-12-11T20:39:38.361Z,100993.50
2022-12-11T20:42:06.489Z,100984.59
2022-12-11T20:44:35.857Z,100991.66
2022-12-11T20:47:03.804Z,100996.09
2022-12-11T20:49:34.667Z,100989.75
2022-12-11T20:52:02.664Z,100989.66
2022-12-11T20:54:31.009Z,100991.47
2022-12-11T20:56:58.909Z,100989.56
2022-12-11T20:59:27.136Z,100990.53
2022-12-11T21:01:56.942Z,100985.19
2022-12-11T21:04:25.242Z,100985.06
2022-12-11T21:06:56.291Z,100986.91
2022-12-11T21:09:26.813Z,100989.56
2022-12-11T21:11:57.758Z,100990.31
2022-12-11T21:14:25.983Z,100984.03
2022-12-11T21:16:54.170Z,100990.31
2022-12-11T21:19:23.859Z,100976.00
2022-12-11T21:21:52.200Z,100977.69
2022-12-11T21:24:22.773Z,100980.38
2022-12-11T21:26:51.098Z,100978.66
2022-12-11T21:29:19.555Z,100985.63
2022-12-11T21:31:47.519Z,100991.84
2022-12-11T21:34:18.281Z,100986.22
2022-12-11T21:36:54.664Z,100985.19
2022-12-11T21:39:22.760Z,100991.19
2022-12-11T21:41:51.099Z,100986.72
2022-12-11T21:47:06.976Z,100987.47
2022-12-11T21:49:34.957Z,100985.75
2022-12-11T21:52:08.390Z,100992.81
2022-12-11T21:54:36.782Z,100987.38
2022-12-11T21:57:06.645Z,100996.28
2022-12-11T21:59:34.942Z,100989.94
2022-12-11T22:02:03.047Z,100991.78
2022-12-11T22:04:31.119Z,100994.44
2022-12-11T22:06:59.341Z,100989.94
2022-12-11T22:09:28.788Z,100991.66
2022-12-11T22:11:58.757Z,100995.31
2022-12-11T22:14:27.180Z,101001.41
2022-12-11T22:16:55.199Z,101007.66
2022-12-11T22:19:25.602Z,101005.84
2022-12-11T22:21:57.102Z,101011.22
2022-12-11T22:24:25.003Z,101017.50
2022-12-11T22:26:54.438Z,101006.03
2022-12-11T22:29:22.522Z,101022.88
2022-12-11T22:31:50.367Z,101018.47
2022-12-11T22:34:18.231Z,101015.03
2022-12-11T22:36:46.245Z,101018.47
2022-12-11T22:39:14.374Z,101017.63
2022-12-11T22:41:43.256Z,101018.47
2022-12-11T22:44:17.073Z,101021.16
2022-12-11T22:46:49.939Z,101020.28
2022-12-11T22:49:18.713Z,101015.03
2022-12-11T22:51:46.653Z,101012.38
2022-12-11T22:54:14.606Z,101009.69
2022-12-11T22:56:42.627Z,101011.50
2022-12-11T22:59:12.901Z,101018.66
2022-12-11T23:01:42.692Z,101017.91
2022-12-11T23:04:10.875Z,101004.41
2022-12-11T23:06:39.074Z,101016.19
2022-12-11T23:09:07.269Z,101010.84
2022-12-11T23:11:37.784Z,101023.28
2022-12-11T23:14:06.591Z,101022.50
2022-12-11T23:16:34.895Z,101021.63
2022-12-11T23:19:07.123Z,101028.81
2022-12-11T23:21:35.125Z,101025.28
2022-12-11T23:24:04.048Z,101027.09
2022-12-11T23:26:33.172Z,101026.63
2022-12-11T23:29:03.072Z,101023.81
2022-12-11T23:31:33.204Z,101022.97
2022-12-11T23:34:01.228Z,101022.09
2022-12-11T23:36:31.672Z,101019.44
2022-12-11T23:38:59.635Z,101022.97
2022-12-11T23:41:27.744Z,101022.22
2022-12-11T23:43:55.880Z,101025.88
2022-12-11T23:46:25.322Z,101025.94
2022-12-11T23:48:54.669Z,101025.09
2022-12-11T23:51:24.808Z,101021.53
2022-12-11T23:53:55.550Z,101022.50
2022-12-11T23:56:25.818Z,101018.94
